Airfield :
LOGIN :

Register | Disclaimer

   EN    FR    IT 

 










Legend :    VFR   Marginal VFR   IFR   Intensive IFR   Very Intensive IFR
Visi :
Ceiling :
>= 8 km
>= 3000ft
5 to 8 km
1000 to 3000 ft
1500m to 5 km
500 to 1000 ft
800 to 1500m
200 to 500 ft
< 800m
< 200 ft
Symbols :   Thunderstorms  Fog  Heavy snow  Heavy precipitations  Wind > 20 kt
SIGMETs :     Misc.  Thunderstorms  Icing  Turbulence  Mountain Waves  Volcanic Ashes







- Airport Elevation : 299 ft
- IATA code : EDM
- Download approach charts


LFRI - La Roche Sur Yon - Les Ajoncs

CURRENT METAR :
  • 261230Z AUTO 13009KT 100V170 CAVOK 16/04 Q1017 NOSIG

EXPIRED METARs :
  • 261200Z AUTO 14008KT CAVOK 15/06 Q1018 NOSIG
  • 261130Z AUTO 10007KT CAVOK 13/07 Q1018 NOSIG
  • 261100Z AUTO 12008KT 090V150 CAVOK 12/06 Q1018 NOSIG
  • 261030Z AUTO 10009KT CAVOK 12/06 Q1018 NOSIG
  • 261000Z AUTO 12008KT CAVOK 12/06 Q1018 NOSIG

TAF TAF LFRI
Valid from the 26 at 12:00 until the 27 at 12:00 UTC


261100Z 2612/2712 12006KT CAVOK
No reported NOTAMs for that airfield.
1 SIGMET reported for the Brest FIR (LFRR) :
 
Severe turbulence
LFRR SIGMET 2 VALID 261000/261400 LFPW
LFRR BREST FIR/UIR SEV TURB FCST WI N4630 W00130 - N4545 W00145 - N4630 W00600 - N4715 W00600 FL160/270 INTSF=



MET'MAP, your aeronautical weather chart ! - Copyright ORBIFLY December 2007 - Disclaimer

ORBIFLY MET'MAP TEAM :

Programming & Development : Alexandra Zaïnal
Concept & Development : Baudouin d'Aumeries
Co-Development & Prog : Marc-Olivier Méhu
Technical & hardware support : Manuel Goepfert

Contact : metmap@orbifly.com




SOURCES & CREDITS :

   NOAA